Terminal Aerodrome Forecast
Issued by NWS Melbourne, FL

Current Version | Previous Version | Text Only | Print | Product List | Glossary On
Versions: 1 2 3 4 5 6 7 8 9 10 11 12 13 14 15 16
000
FTUS42 KMLB 252328
TAFMLB
TAF
KMLB 252328Z 2600/2624 10009KT P6SM SCT040 SCT250
     FM260300 10006KT P6SM VCSH SCT040
     FM261300 10008KT P6SM VCSH SCT035 SCT060=

USA.gov is the U.S. government's official web portal to all federal, state and local government web resources and services.